Terminal Aerodrome Forecast
Issued by NWS Blacksburg, VA

Home | Current Version | Previous Version | Text Only | Print | Product List | Glossary On
Versions: 1 2 3 4 5 6 7 8 9 10 11 12 13 14 15 16 17 18 19 20 21 22
000
FTUS41 KRNK 230520
TAFROA
TAF
KROA 230520Z 2306/2406 07010G20KT 4SM -RA BR SCT004 OVC013
      TEMPO 2306/2310 1SM RA BR BKN004
     FM231500 06007KT 5SM -RA BR BKN007 OVC015
     FM231800 36006KT P6SM -SHRA SCT009 OVC018
     FM240200 34005KT P6SM VCSH BKN023=

USA.gov is the U.S. government's official web portal to all federal, state and local government web resources and services.